createdAt,value
2022-09-06T00:00:40.516Z,17.34
2022-09-06T00:03:46.792Z,17.50
2022-09-06T00:06:51.563Z,17.50
2022-09-06T00:09:57.549Z,17.62
2022-09-06T00:13:04.846Z,17.51
2022-09-06T00:16:17.171Z,17.79
2022-09-06T00:19:22.001Z,17.87
2022-09-06T00:22:26.734Z,17.88
2022-09-06T00:25:31.792Z,17.90
2022-09-06T00:28:36.621Z,17.96
2022-09-06T00:31:41.396Z,17.92
2022-09-06T00:34:46.091Z,18.07
2022-09-06T00:37:50.833Z,17.97
2022-09-06T00:40:55.672Z,18.03
2022-09-06T00:44:00.523Z,17.91
2022-09-06T00:47:06.356Z,18.08
2022-09-06T00:50:14.469Z,18.10
2022-09-06T00:53:20.076Z,18.00
2022-09-06T00:56:26.316Z,17.97
2022-09-06T00:59:33.224Z,18.18
2022-09-06T01:02:38.147Z,18.16
2022-09-06T01:05:45.599Z,18.07
2022-09-06T01:08:56.449Z,18.25
2022-09-06T01:12:28.296Z,17.99
2022-09-06T01:16:01.797Z,18.13
2022-09-06T01:19:40.456Z,18.13
2022-09-06T01:23:09.172Z,18.14
2022-09-06T01:26:21.543Z,17.87
2022-09-06T01:29:36.000Z,17.93
2022-09-06T01:32:58.146Z,18.00
2022-09-06T01:36:10.135Z,18.07
2022-09-06T01:39:24.934Z,17.71
2022-09-06T01:42:33.005Z,17.99
2022-09-06T01:46:04.890Z,17.98
2022-09-06T01:49:35.707Z,17.60
2022-09-06T01:52:59.093Z,18.00
2022-09-06T01:56:18.583Z,18.05
2022-09-06T01:59:35.326Z,18.08
2022-09-06T02:02:55.954Z,18.07
2022-09-06T02:06:13.197Z,18.03
2022-09-06T02:09:24.976Z,18.16
2022-09-06T02:12:33.941Z,18.07
2022-09-06T02:15:44.504Z,17.79
2022-09-06T02:19:25.877Z,18.04
2022-09-06T02:22:40.699Z,17.52
2022-09-06T02:25:53.018Z,17.77
2022-09-06T02:28:58.531Z,17.65
2022-09-06T02:32:10.167Z,17.19
2022-09-06T02:35:17.444Z,17.78
2022-09-06T02:38:28.435Z,17.74
2022-09-06T02:41:34.800Z,17.64
2022-09-06T02:44:39.597Z,17.43
2022-09-06T02:47:45.052Z,17.65
2022-09-06T02:50:49.395Z,17.46
2022-09-06T02:53:54.203Z,17.51
2022-09-06T02:56:58.723Z,17.67
2022-09-06T03:00:03.518Z,17.62
2022-09-06T03:03:09.159Z,17.83
2022-09-06T03:06:14.460Z,17.65
2022-09-06T03:09:19.234Z,17.89
2022-09-06T03:12:26.245Z,17.87
2022-09-06T03:15:31.264Z,17.74
2022-09-06T03:18:36.514Z,17.62
2022-09-06T03:21:41.013Z,17.94
2022-09-06T03:24:45.656Z,18.01
2022-09-06T03:27:50.817Z,17.79
2022-09-06T03:30:55.855Z,17.88
2022-09-06T03:34:01.003Z,17.82
2022-09-06T03:37:06.335Z,18.02
2022-09-06T03:40:11.843Z,17.79
2022-09-06T03:43:18.606Z,17.84
2022-09-06T03:46:23.617Z,17.79
2022-09-06T03:49:28.347Z,17.69
2022-09-06T03:52:33.573Z,18.02
2022-09-06T03:55:38.624Z,18.14
2022-09-06T03:58:43.400Z,18.06
2022-09-06T04:01:48.665Z,18.16
2022-09-06T04:04:56.613Z,18.03
2022-09-06T04:08:01.426Z,18.07
2022-09-06T04:11:07.426Z,18.06
2022-09-06T04:14:12.086Z,17.85
2022-09-06T04:17:17.034Z,18.16
2022-09-06T04:20:21.841Z,18.02
2022-09-06T04:23:29.168Z,18.11
2022-09-06T04:26:34.198Z,18.10
2022-09-06T04:29:39.232Z,18.01
2022-09-06T04:32:43.959Z,18.03
2022-09-06T04:35:51.914Z,18.01
2022-09-06T04:38:56.903Z,18.02
2022-09-06T04:42:01.559Z,17.62
2022-09-06T04:45:06.674Z,17.71
2022-09-06T04:48:11.930Z,17.65
2022-09-06T04:51:16.696Z,17.47
2022-09-06T04:54:21.553Z,17.62
2022-09-06T04:57:26.483Z,17.83
2022-09-06T05:00:34.139Z,17.77
2022-09-06T05:03:39.251Z,17.86
2022-09-06T05:06:44.241Z,17.93
2022-09-06T05:09:48.952Z,17.77
2022-09-06T05:12:55.308Z,16.90
2022-09-06T05:16:08.391Z,17.59
2022-09-06T05:19:13.701Z,17.49
2022-09-06T05:22:18.722Z,17.65
2022-09-06T05:25:23.617Z,17.55
2022-09-06T05:28:28.289Z,17.40
2022-09-06T05:31:35.221Z,17.41
2022-09-06T05:34:40.083Z,17.39
2022-09-06T05:37:44.886Z,17.46
2022-09-06T05:40:49.833Z,17.32
2022-09-06T05:43:54.988Z,17.41
2022-09-06T05:46:59.669Z,17.38
2022-09-06T05:50:06.042Z,17.25
2022-09-06T05:53:10.878Z,17.42
2022-09-06T05:56:16.958Z,17.16
2022-09-06T05:59:21.857Z,17.32
2022-09-06T06:02:27.389Z,17.15
2022-09-06T06:05:32.319Z,17.04
2022-09-06T06:08:37.636Z,17.15
2022-09-06T06:11:43.111Z,16.99
2022-09-06T06:14:47.838Z,17.04
2022-09-06T06:17:52.632Z,17.05
2022-09-06T06:21:13.471Z,16.92
2022-09-06T06:24:18.168Z,17.09
2022-09-06T06:27:22.801Z,17.07
2022-09-06T06:30:27.643Z,16.89
2022-09-06T06:33:33.481Z,16.70
2022-09-06T06:36:38.920Z,16.76
2022-09-06T06:39:43.801Z,16.84
2022-09-06T06:42:48.894Z,16.84
2022-09-06T06:45:54.009Z,16.72
2022-09-06T06:48:59.078Z,16.85
2022-09-06T06:52:03.596Z,16.45
2022-09-06T06:55:08.389Z,16.70
2022-09-06T06:58:14.362Z,16.62
2022-09-06T07:01:21.417Z,16.74
2022-09-06T07:04:26.211Z,16.49
2022-09-06T07:07:31.067Z,16.48
2022-09-06T07:10:36.001Z,16.58
2022-09-06T07:13:41.087Z,16.33
2022-09-06T07:16:46.006Z,16.45
2022-09-06T07:26:41.866Z,16.30
2022-09-06T07:29:49.277Z,16.55
2022-09-06T07:32:54.578Z,16.58
2022-09-06T07:36:03.474Z,16.56
2022-09-06T07:39:16.336Z,16.65
2022-09-06T07:42:26.376Z,16.63
2022-09-06T07:45:31.872Z,16.56
2022-09-06T07:48:40.257Z,16.54
2022-09-06T07:51:46.375Z,16.48
2022-09-06T07:54:55.086Z,16.48
2022-09-06T07:58:02.044Z,16.47
2022-09-06T08:01:21.604Z,16.27
2022-09-06T08:04:30.887Z,16.42
2022-09-06T08:07:40.528Z,16.40
2022-09-06T08:10:47.075Z,16.34
2022-09-06T08:14:01.604Z,16.30
2022-09-06T08:17:07.218Z,16.30
2022-09-06T08:20:14.110Z,16.36
2022-09-06T08:23:19.438Z,16.46
2022-09-06T08:26:26.425Z,16.42
2022-09-06T08:29:32.203Z,16.37
2022-09-06T08:32:40.210Z,16.46
2022-09-06T08:35:45.864Z,16.48
2022-09-06T08:38:51.509Z,16.40
2022-09-06T08:42:06.766Z,16.04
2022-09-06T08:45:17.078Z,16.37
2022-09-06T08:48:24.458Z,16.33
2022-09-06T08:51:49.019Z,16.29
2022-09-06T08:54:57.948Z,15.93
2022-09-06T08:58:44.264Z,16.17
2022-09-06T09:02:18.617Z,16.20
2022-09-06T09:05:34.566Z,16.17
2022-09-06T09:08:54.229Z,16.13
2022-09-06T09:12:01.516Z,16.09
2022-09-06T09:15:14.207Z,15.99
2022-09-06T09:18:29.124Z,16.10
2022-09-06T09:21:38.531Z,16.08
2022-09-06T09:24:48.967Z,15.92
2022-09-06T09:27:59.320Z,15.99
2022-09-06T09:31:07.174Z,16.00
2022-09-06T09:34:15.107Z,16.03
2022-09-06T09:37:47.229Z,16.06
2022-09-06T09:41:10.513Z,15.99
2022-09-06T09:44:39.603Z,15.54
2022-09-06T09:47:46.528Z,16.03
2022-09-06T09:50:53.479Z,16.13
2022-09-06T09:54:05.506Z,16.11
2022-09-06T09:57:21.965Z,16.15
2022-09-06T10:00:44.854Z,16.19
2022-09-06T10:07:27.391Z,15.82
2022-09-06T10:10:45.625Z,15.73
2022-09-06T10:13:51.580Z,15.94
2022-09-06T10:17:00.534Z,16.10
2022-09-06T10:20:13.872Z,15.65
2022-09-06T10:27:20.223Z,15.99
2022-09-06T10:30:26.485Z,16.13
2022-09-06T10:34:05.716Z,16.13
2022-09-06T10:37:26.331Z,15.46
2022-09-06T10:40:36.209Z,16.25
2022-09-06T10:44:11.374Z,16.16
2022-09-06T10:47:18.246Z,16.02
2022-09-06T10:50:27.635Z,16.19
2022-09-06T10:53:48.794Z,15.94
2022-09-06T10:57:00.135Z,16.12
2022-09-06T11:00:14.177Z,16.08
2022-09-06T11:07:04.131Z,16.03
2022-09-06T11:10:49.869Z,15.85
2022-09-06T11:15:18.163Z,15.53
2022-09-06T11:24:17.579Z,15.75
2022-09-06T11:29:12.369Z,15.73
2022-09-06T11:32:37.230Z,15.84
2022-09-06T11:36:18.934Z,16.06
2022-09-06T11:43:50.440Z,15.92
2022-09-06T11:47:22.566Z,15.78
2022-09-06T11:51:05.668Z,15.99
2022-09-06T11:54:16.579Z,15.96
2022-09-06T11:57:28.574Z,15.03
2022-09-06T12:06:23.415Z,15.78
2022-09-06T12:30:41.674Z,15.90
2022-09-06T12:33:48.228Z,15.96
2022-09-06T12:37:10.880Z,16.01
2022-09-06T12:40:52.465Z,16.06
2022-09-06T12:44:12.881Z,15.52
2022-09-06T12:47:31.009Z,16.05
2022-09-06T12:50:36.546Z,16.01
2022-09-06T12:56:04.307Z,15.15
2022-09-06T13:05:04.991Z,16.02
2022-09-06T13:08:17.348Z,15.95
2022-09-06T13:12:19.995Z,15.89
2022-09-06T13:16:26.575Z,16.00
2022-09-06T13:19:48.846Z,15.82
2022-09-06T13:23:15.663Z,15.66
2022-09-06T13:27:05.122Z,15.47
2022-09-06T13:30:50.504Z,15.12
2022-09-06T13:34:03.184Z,15.99
2022-09-06T13:37:27.772Z,15.31
2022-09-06T13:41:14.686Z,15.43
2022-09-06T13:44:37.161Z,15.16
2022-09-06T13:48:26.108Z,15.46
2022-09-06T13:51:39.023Z,15.85
2022-09-06T13:54:46.615Z,15.84
2022-09-06T13:57:51.974Z,15.38
2022-09-06T14:00:57.508Z,15.82
2022-09-06T14:04:06.065Z,15.16
2022-09-06T14:07:14.639Z,15.81
2022-09-06T14:10:27.041Z,15.25
2022-09-06T14:13:34.388Z,15.81
2022-09-06T14:16:39.830Z,15.82
2022-09-06T14:19:44.997Z,15.81
2022-09-06T14:22:52.471Z,15.77
2022-09-06T14:25:58.794Z,15.05
2022-09-06T14:29:03.921Z,15.65
2022-09-06T14:32:08.734Z,15.29
2022-09-06T14:35:13.841Z,15.61
2022-09-06T14:38:18.893Z,15.45
2022-09-06T14:41:23.684Z,15.62
2022-09-06T14:44:28.507Z,15.43
2022-09-06T14:47:34.197Z,15.44
2022-09-06T14:50:39.142Z,15.48
2022-09-06T14:53:46.818Z,15.58
2022-09-06T14:56:51.868Z,15.46
2022-09-06T14:59:57.063Z,15.25
2022-09-06T15:03:02.030Z,15.16
2022-09-06T15:06:10.050Z,15.55
2022-09-06T15:09:18.694Z,15.35
2022-09-06T15:16:50.841Z,14.59
2022-09-06T15:19:59.370Z,13.97
2022-09-06T15:23:34.917Z,14.41
2022-09-06T15:26:32.664Z,13.91
2022-09-06T15:29:37.754Z,14.21
2022-09-06T15:34:03.987Z,13.76
2022-09-06T15:36:42.829Z,13.35
2022-09-06T15:39:48.362Z,13.53
2022-09-06T15:43:31.737Z,13.84
2022-09-06T15:46:51.749Z,14.03
2022-09-06T15:49:59.498Z,13.88
2022-09-06T15:53:18.182Z,13.67
2022-09-06T15:56:23.359Z,13.76
2022-09-06T15:59:28.749Z,13.93
2022-09-06T16:03:05.462Z,13.88
2022-09-06T16:06:57.974Z,13.10
2022-09-06T16:14:18.600Z,12.87
2022-09-06T16:18:28.394Z,13.11
2022-09-06T16:22:24.194Z,12.84
2022-09-06T16:26:21.545Z,12.91
2022-09-06T16:35:04.239Z,12.81
2022-09-06T16:39:06.610Z,13.37
2022-09-06T16:52:28.481Z,13.16
2022-09-06T17:00:14.665Z,13.07
2022-09-06T17:04:06.845Z,12.75
2022-09-06T17:07:25.847Z,12.66
2022-09-06T17:10:40.668Z,12.94
2022-09-06T17:13:55.572Z,13.14
2022-09-06T17:20:35.920Z,12.74
2022-09-06T17:23:47.907Z,13.20
2022-09-06T17:27:15.297Z,12.80
2022-09-06T17:30:30.475Z,12.04
2022-09-06T17:33:52.019Z,12.93
2022-09-06T17:40:24.960Z,12.89
2022-09-06T17:43:37.800Z,12.83
2022-09-06T17:47:13.948Z,12.21
2022-09-06T17:50:49.694Z,12.87
2022-09-06T17:54:11.187Z,12.05
2022-09-06T17:57:30.800Z,12.54
2022-09-06T18:00:39.153Z,12.62
2022-09-06T18:03:48.036Z,13.06
2022-09-06T18:18:30.263Z,12.76
2022-09-06T18:21:38.111Z,11.92
2022-09-06T18:25:02.847Z,12.41
2022-09-06T18:28:37.176Z,12.58
2022-09-06T18:31:58.344Z,13.06
2022-09-06T18:35:11.789Z,12.88
2022-09-06T18:38:16.888Z,12.31
2022-09-06T18:41:43.391Z,12.50
2022-09-06T18:44:58.064Z,12.67
2022-09-06T18:48:15.054Z,12.23
2022-09-06T18:52:58.142Z,12.97
2022-09-06T18:56:05.849Z,12.57
2022-09-06T18:59:37.462Z,12.13
2022-09-06T19:03:22.880Z,12.51
2022-09-06T19:07:06.997Z,11.98
2022-09-06T19:10:38.188Z,12.61
2022-09-06T19:14:40.787Z,12.62
2022-09-06T19:19:55.252Z,12.41
2022-09-06T19:22:57.133Z,12.35
2022-09-06T19:31:19.772Z,12.25
2022-09-06T19:35:12.712Z,12.21
2022-09-06T19:39:49.276Z,12.23
2022-09-06T19:43:38.698Z,11.30
2022-09-06T19:47:16.464Z,11.86
2022-09-06T19:50:21.396Z,11.95
2022-09-06T19:53:26.522Z,11.48
2022-09-06T19:56:43.785Z,12.21
2022-09-06T20:00:00.519Z,12.18
2022-09-06T20:03:08.447Z,11.86
2022-09-06T20:06:15.014Z,11.60
2022-09-06T20:09:22.463Z,11.80
2022-09-06T20:12:35.600Z,12.25
2022-09-06T20:16:01.792Z,11.96
2022-09-06T20:19:34.245Z,12.28
2022-09-06T20:23:07.039Z,12.28
2022-09-06T20:27:14.204Z,12.30
2022-09-06T20:35:56.204Z,11.87
2022-09-06T20:38:30.908Z,11.55
2022-09-06T20:41:42.045Z,12.02
2022-09-06T20:44:48.197Z,12.61
2022-09-06T20:48:29.577Z,12.21
2022-09-06T20:51:42.978Z,11.87
2022-09-06T20:54:49.906Z,12.40
2022-09-06T20:58:49.079Z,12.13
2022-09-06T21:11:50.959Z,12.66
2022-09-06T21:16:45.356Z,12.24
2022-09-06T21:20:14.241Z,12.07
2022-09-06T21:23:27.713Z,12.51
2022-09-06T21:26:32.804Z,12.57
2022-09-06T21:29:37.871Z,12.87
2022-09-06T21:32:43.489Z,12.81
2022-09-06T21:35:48.124Z,12.51
2022-09-06T21:38:57.608Z,12.21
2022-09-06T21:42:04.538Z,12.28
2022-09-06T21:45:10.027Z,12.82
2022-09-06T21:48:19.228Z,12.42
2022-09-06T21:51:29.162Z,12.46
2022-09-06T21:54:34.838Z,12.68
2022-09-06T21:57:39.481Z,12.38
2022-09-06T22:00:48.799Z,12.26
2022-09-06T22:03:56.972Z,12.70
2022-09-06T22:07:01.805Z,12.40
2022-09-06T22:10:07.245Z,12.51
2022-09-06T22:13:12.271Z,12.41
2022-09-06T22:16:19.277Z,12.60
2022-09-06T22:19:23.981Z,12.71
2022-09-06T22:22:29.325Z,12.54
2022-09-06T22:25:34.835Z,12.20
2022-09-06T22:28:41.389Z,12.56
2022-09-06T22:31:47.180Z,12.73
2022-09-06T22:34:52.572Z,12.51
2022-09-06T22:37:57.809Z,12.44
2022-09-06T22:41:03.470Z,12.27
2022-09-06T22:44:08.691Z,12.07
2022-09-06T22:47:13.436Z,11.66
2022-09-06T22:50:18.838Z,11.96
2022-09-06T22:53:23.990Z,11.76
2022-09-06T22:56:29.890Z,11.67
2022-09-06T22:59:38.648Z,11.63
2022-09-06T23:02:43.794Z,11.93
2022-09-06T23:05:48.668Z,11.81
2022-09-06T23:08:53.642Z,11.87
2022-09-06T23:11:58.219Z,11.62
2022-09-06T23:15:03.298Z,11.45
2022-09-06T23:18:08.406Z,11.77
2022-09-06T23:21:15.709Z,11.45
2022-09-06T23:24:20.664Z,11.55
2022-09-06T23:27:25.554Z,11.60
2022-09-06T23:30:30.403Z,11.64
2022-09-06T23:33:38.187Z,11.43
2022-09-06T23:36:43.146Z,11.31
2022-09-06T23:39:48.138Z,11.43
2022-09-06T23:42:52.957Z,11.44
2022-09-06T23:45:57.861Z,11.38
2022-09-06T23:49:02.461Z,11.24
2022-09-06T23:52:07.777Z,11.59
2022-09-06T23:55:12.673Z,11.18
2022-09-06T23:58:17.652Z,11.22
